Time;durP1;ratioP1;P1;durP2;ratioP2;P2;SDS_P1;SDS_P2;PMS_P1;PMS_P2;Temp;Humidity;BMP_temperature;BMP_pressure;BME280_temperature;BME280_humidity;BME280_pressure;Samples;Min_cycle;Max_cycle;Signal;HPM_P1;HPM_P2
2024/03/04 00:01:52;;;;;;;18.50;11.30;;;5.90;1.00;;;;;;5098843;27;21348;-75
2024/03/04 00:04:40;;;;;;;20.10;10.57;;;5.90;1.00;;;;;;5097331;27;20071;-75
2024/03/04 00:07:29;;;;;;;18.65;11.30;;;5.90;1.00;;;;;;5086794;28;20606;-76
2024/03/04 00:10:16;;;;;;;19.80;10.98;;;5.80;1.00;;;;;;5106443;27;20385;-76
2024/03/04 00:13:04;;;;;;;18.55;11.13;;;5.70;1.00;;;;;;5093702;28;20050;-76
2024/03/04 00:15:52;;;;;;;19.00;10.55;;;5.70;1.00;;;;;;5099581;27;20089;-75
2024/03/04 00:18:43;;;;;;;19.05;10.57;;;5.70;1.00;;;;;;5099516;28;20196;-76
2024/03/04 00:21:30;;;;;;;19.95;10.55;;;5.70;1.00;;;;;;5095004;28;20106;-77
2024/03/04 00:24:18;;;;;;;20.55;12.25;;;5.60;1.30;;;;;;5091374;28;20392;-75
2024/03/04 00:27:05;;;;;;;22.20;12.32;;;5.60;18.40;;;;;;5092422;28;20471;-76
2024/03/04 00:29:53;;;;;;;24.48;13.45;;;5.60;57.50;;;;;;5092817;28;20080;-77
2024/03/04 00:32:40;;;;;;;15.38;10.90;;;5.50;94.20;;;;;;5102019;27;20052;-74
2024/03/04 00:35:29;;;;;;;18.60;12.13;;;5.50;99.90;;;;;;5087516;28;20046;-76
2024/03/04 00:38:18;;;;;;;19.02;12.02;;;5.30;99.90;;;;;;5103668;28;20039;-76
2024/03/04 00:41:07;;;;;;;22.90;12.93;;;5.20;99.90;;;;;;5119294;28;20137;-75
2024/03/04 00:43:54;;;;;;;22.55;13.32;;;5.10;99.90;;;;;;5104785;28;20061;-73
2024/03/04 00:46:42;;;;;;;23.23;14.98;;;5.10;99.90;;;;;;5117963;27;20042;-74
2024/03/04 00:49:30;;;;;;;31.08;15.80;;;5.20;99.90;;;;;;5119368;27;20055;-73
2024/03/04 00:52:18;;;;;;;31.13;15.88;;;5.20;99.90;;;;;;5115031;27;20178;-77
2024/03/04 00:55:06;;;;;;;28.80;16.65;;;5.20;99.90;;;;;;5110899;27;20050;-77
2024/03/04 00:57:54;;;;;;;34.53;18.42;;;5.30;99.90;;;;;;5094781;28;20048;-73
2024/03/04 01:00:42;;;;;;;32.92;18.58;;;5.30;99.90;;;;;;5108135;28;20044;-74
2024/03/04 01:03:31;;;;;;;33.53;19.95;;;5.30;1.00;;;;;;5111433;28;20109;-74
2024/03/04 01:06:19;;;;;;;34.83;19.40;;;5.30;1.00;;;;;;5110623;27;20086;-75
2024/03/04 01:09:10;;;;;;;33.55;19.70;;;5.40;1.00;;;;;;5096769;28;20031;-76
2024/03/04 01:11:59;;;;;;;35.55;20.60;;;5.30;1.00;;;;;;5107362;27;20595;-77
2024/03/04 01:14:46;;;;;;;32.13;19.98;;;5.40;26.90;;;;;;5099813;28;20051;-78
2024/03/04 01:17:36;;;;;;;36.78;22.75;;;5.40;93.90;;;;;;5094715;28;20047;-75
2024/03/04 01:20:26;;;;;;;33.30;21.63;;;5.40;99.90;;;;;;5095889;27;20040;-76
2024/03/04 01:23:13;;;;;;;42.90;24.17;;;5.40;99.90;;;;;;5096228;28;20135;-76
2024/03/04 01:26:01;;;;;;;38.45;23.27;;;5.40;99.90;;;;;;5082445;28;20043;-75
2024/03/04 01:28:49;;;;;;;43.80;24.52;;;5.50;99.90;;;;;;5090866;28;20055;-78
2024/03/04 01:31:36;;;;;;;38.58;24.25;;;5.50;99.90;;;;;;5101058;27;20054;-76
2024/03/04 01:34:24;;;;;;;42.28;24.67;;;5.50;99.90;;;;;;5091408;28;20128;-75
2024/03/04 01:37:12;;;;;;;38.63;24.17;;;5.50;1.00;;;;;;5095501;28;20044;-76
2024/03/04 01:39:59;;;;;;;44.60;25.23;;;5.50;1.00;;;;;;5081315;27;20602;-76
2024/03/04 01:42:47;;;;;;;44.83;25.95;;;5.50;1.00;;;;;;5089925;28;20044;-77
2024/03/04 01:45:34;;;;;;;45.28;25.75;;;5.50;1.00;;;;;;5095282;28;20040;-78
2024/03/04 01:48:22;;;;;;;47.08;27.13;;;5.50;19.90;;;;;;5101156;28;20039;-77
2024/03/04 01:51:10;;;;;;;46.72;26.58;;;5.50;92.90;;;;;;5086388;27;20035;-78
2024/03/04 01:53:57;;;;;;;48.47;29.42;;;5.50;99.90;;;;;;5096043;28;20052;-75
2024/03/04 01:56:45;;;;;;;50.53;29.40;;;5.60;99.90;;;;;;5099901;28;20048;-75
2024/03/04 01:59:34;;;;;;;53.42;29.92;;;5.60;99.90;;;;;;5090226;28;20759;-74
2024/03/04 02:02:21;;;;;;;51.08;28.58;;;5.60;99.90;;;;;;5083935;28;20040;-76
2024/03/04 02:05:11;;;;;;;45.15;26.90;;;5.60;99.90;;;;;;5095347;27;20043;-75
2024/03/04 02:07:59;;;;;;;46.05;27.85;;;5.50;1.00;;;;;;5084112;28;20048;-77
2024/03/04 02:10:51;;;;;;;50.53;28.75;;;5.50;1.00;;;;;;5093453;28;20048;-75
2024/03/04 02:13:39;;;;;;;49.00;28.70;;;5.50;1.00;;;;;;5095781;28;20048;-74
2024/03/04 02:16:27;;;;;;;48.58;28.40;;;5.40;17.70;;;;;;5092987;28;20046;-77
2024/03/04 02:19:17;;;;;;;47.20;27.52;;;5.40;99.90;;;;;;5102871;28;20039;-76
2024/03/04 02:22:08;;;;;;;45.65;27.70;;;5.30;99.90;;;;;;5095278;28;20417;-76
2024/03/04 02:24:56;;;;;;;49.72;28.50;;;5.30;99.90;;;;;;5095570;28;20110;-77
2024/03/04 02:27:43;;;;;;;48.35;29.15;;;5.30;99.90;;;;;;5097565;27;20626;-75
2024/03/04 02:30:32;;;;;;;45.38;27.52;;;5.30;99.90;;;;;;5084971;28;20082;-76
2024/03/04 02:33:26;;;;;;;47.35;29.13;;;5.30;1.00;;;;;;5099941;27;20044;-77
2024/03/04 02:36:13;;;;;;;46.58;28.58;;;5.30;3.30;;;;;;5103253;28;20055;-74
2024/03/04 02:39:03;;;;;;;50.17;28.65;;;5.30;99.90;;;;;;5095877;28;20043;-74
2024/03/04 02:41:50;;;;;;;55.92;31.30;;;5.30;99.90;;;;;;5078963;28;20050;-76
2024/03/04 02:44:38;;;;;;;51.30;30.17;;;5.40;1.00;;;;;;5098521;28;20504;-75
2024/03/04 02:47:26;;;;;;;49.55;28.67;;;5.30;1.00;;;;;;5080400;28;20047;-74
2024/03/04 02:50:13;;;;;;;50.50;27.98;;;5.40;1.00;;;;;;5094595;28;20044;-76
2024/03/04 02:53:02;;;;;;;43.97;27.23;;;5.30;1.00;;;;;;5085393;28;20050;-76
2024/03/04 02:55:49;;;;;;;44.63;26.35;;;5.20;1.00;;;;;;5095970;28;20039;-75
2024/03/04 02:58:36;;;;;;;48.33;27.35;;;5.10;1.00;;;;;;5093036;28;20055;-76
2024/03/04 03:01:26;;;;;;;46.35;25.40;;;5.10;1.00;;;;;;5074159;28;20051;-78
2024/03/04 03:04:15;;;;;;;42.95;26.45;;;5.00;87.00;;;;;;5094494;28;20075;-74
2024/03/04 03:07:02;;;;;;;43.90;26.33;;;5.00;99.50;;;;;;5097859;27;20108;-76
2024/03/04 03:09:50;;;;;;;44.53;25.90;;;4.90;99.90;;;;;;5093924;27;20112;-76
2024/03/04 03:12:38;;;;;;;45.60;25.80;;;4.90;99.90;;;;;;5089293;28;20054;-74
2024/03/04 03:15:25;;;;;;;40.17;24.23;;;4.80;99.90;;;;;;5104191;28;20112;-73
2024/03/04 03:18:13;;;;;;;42.50;25.42;;;4.80;99.90;;;;;;5082784;28;20039;-75
2024/03/04 03:21:01;;;;;;;45.40;25.95;;;4.80;99.90;;;;;;5101286;28;20522;-75
2024/03/04 03:23:51;;;;;;;46.22;25.50;;;4.70;99.90;;;;;;5084281;27;20040;-75
2024/03/04 03:26:38;;;;;;;42.80;26.55;;;4.80;23.70;;;;;;5096983;28;20120;-76
2024/03/04 03:29:26;;;;;;;42.72;26.13;;;4.80;99.90;;;;;;5092289;28;20155;-77
2024/03/04 03:32:13;;;;;;;48.90;26.38;;;4.80;99.90;;;;;;5091102;28;20047;-77
2024/03/04 03:35:01;;;;;;;51.17;27.27;;;4.80;1.00;;;;;;5090171;28;20142;-76
2024/03/04 03:37:49;;;;;;;46.85;27.63;;;4.80;1.00;;;;;;5081303;28;20040;-75
2024/03/04 03:40:36;;;;;;;47.92;26.92;;;4.80;79.00;;;;;;5095041;28;20051;-76
2024/03/04 03:43:24;;;;;;;47.97;27.50;;;4.80;99.90;;;;;;5097020;28;20184;-75
2024/03/04 03:46:12;;;;;;;44.67;27.05;;;4.80;1.00;;;;;;5094238;28;20512;-76
2024/03/04 03:49:00;;;;;;;50.88;27.55;;;4.90;99.90;;;;;;5094467;28;20047;-75
2024/03/04 03:51:48;;;;;;;47.42;27.35;;;5.00;99.90;;;;;;5092123;28;20427;-76
2024/03/04 03:54:35;;;;;;;48.55;27.33;;;5.10;99.90;;;;;;5095107;28;20123;-77
2024/03/04 03:57:23;;;;;;;44.55;26.73;;;5.10;99.90;;;;;;5087028;28;20032;-77
2024/03/04 04:00:13;;;;;;;44.97;25.58;;;5.10;99.90;;;;;;5080193;28;20442;-76
2024/03/04 04:03:00;;;;;;;43.80;25.50;;;5.10;99.90;;;;;;5093993;28;20048;-77
2024/03/04 04:05:50;;;;;;;43.83;24.90;;;5.10;99.90;;;;;;5099691;28;20043;-76
2024/03/04 04:08:39;;;;;;;44.33;25.05;;;5.20;99.90;;;;;;5091812;28;20066;-77
2024/03/04 04:11:27;;;;;;;44.97;25.77;;;5.30;99.90;;;;;;5094814;28;20397;-76
2024/03/04 04:14:15;;;;;;;43.65;25.92;;;5.40;99.90;;;;;;5097158;28;20045;-74
2024/03/04 04:17:04;;;;;;;43.22;23.33;;;5.40;1.00;;;;;;5093277;28;20035;-76
2024/03/04 04:19:51;;;;;;;42.85;25.15;;;5.40;1.00;;;;;;5075713;28;20497;-77
2024/03/04 04:22:40;;;;;;;42.13;22.98;;;5.50;99.90;;;;;;5091365;28;20967;-75
2024/03/04 04:25:28;;;;;;;40.55;23.88;;;5.50;99.90;;;;;;5089123;28;20081;-75
2024/03/04 04:28:15;;;;;;;42.22;25.38;;;5.50;99.90;;;;;;5093647;28;20067;-76
2024/03/04 04:31:03;;;;;;;36.65;22.30;;;5.60;22.60;;;;;;5098666;28;20405;-76
2024/03/04 04:33:50;;;;;;;38.30;24.33;;;5.60;1.00;;;;;;5092387;28;20036;-76
2024/03/04 04:36:46;;;;;;;40.72;23.10;;;5.70;1.00;;;;;;5085615;28;20051;-74
2024/03/04 04:39:33;;;;;;;39.85;22.80;;;5.80;1.00;;;;;;5108260;28;20480;-76
2024/03/04 04:42:22;;;;;;;37.20;22.77;;;5.80;99.90;;;;;;5103326;28;20046;-75
2024/03/04 04:45:10;;;;;;;35.60;22.73;;;5.80;99.90;;;;;;5112745;28;20038;-75
2024/03/04 04:47:57;;;;;;;37.55;22.65;;;5.80;99.90;;;;;;5131048;27;20077;-76
2024/03/04 04:50:44;;;;;;;39.72;23.27;;;5.90;99.90;;;;;;5115430;28;20046;-78
2024/03/04 04:53:33;;;;;;;37.63;21.42;;;5.90;25.70;;;;;;5107086;27;20032;-77
2024/03/04 04:56:21;;;;;;;33.75;22.45;;;6.00;1.00;;;;;;5098967;28;20047;-75
2024/03/04 04:59:09;;;;;;;39.22;22.42;;;6.00;1.00;;;;;;5093591;28;20043;-75
2024/03/04 05:01:57;;;;;;;35.38;22.20;;;6.10;1.00;;;;;;5102986;27;20058;-76
2024/03/04 05:04:44;;;;;;;36.95;22.17;;;6.10;1.00;;;;;;5096747;28;20048;-77
2024/03/04 05:07:43;;;;;;;33.28;21.75;;;6.10;99.90;;;;;;5095437;27;20543;-76
2024/03/04 05:10:31;;;;;;;35.78;21.80;;;6.10;99.90;;;;;;5105643;28;20036;-78
2024/03/04 05:13:18;;;;;;;40.92;23.58;;;6.10;99.90;;;;;;5084866;28;20444;-77
2024/03/04 05:16:07;;;;;;;39.97;23.30;;;6.10;1.00;;;;;;5116207;28;20847;-74
2024/03/04 05:18:56;;;;;;;40.40;22.30;;;6.00;1.00;;;;;;5101765;28;20054;-76
2024/03/04 05:21:44;;;;;;;39.33;23.30;;;6.00;1.00;;;;;;5093087;27;21357;-76
2024/03/04 05:24:31;;;;;;;33.92;21.10;;;6.10;1.00;;;;;;5107818;28;20043;-77
2024/03/04 05:27:18;;;;;;;34.85;20.42;;;6.10;99.90;;;;;;5104920;28;20052;-75
2024/03/04 05:30:08;;;;;;;35.67;21.70;;;6.10;99.90;;;;;;5098029;27;20048;-77
2024/03/04 05:32:55;;;;;;;35.67;21.40;;;6.20;99.90;;;;;;5097703;27;20050;-77
2024/03/04 05:35:44;;;;;;;37.03;21.45;;;6.20;99.90;;;;;;5099747;28;20471;-78
2024/03/04 05:38:32;;;;;;;33.78;20.95;;;6.20;99.90;;;;;;5098775;28;20078;-74
2024/03/04 05:41:19;;;;;;;34.90;20.75;;;6.30;99.90;;;;;;5084262;28;20393;-78
2024/03/04 05:44:06;;;;;;;39.70;23.20;;;6.30;99.90;;;;;;5092597;27;20048;-77
2024/03/04 05:46:54;;;;;;;37.28;22.33;;;6.30;99.90;;;;;;5096971;28;20054;-75
2024/03/04 05:49:41;;;;;;;36.75;22.77;;;6.30;81.30;;;;;;5094807;28;20081;-75
2024/03/04 05:52:29;;;;;;;42.38;23.35;;;6.30;15.40;;;;;;5093636;27;20050;-74
2024/03/04 05:55:16;;;;;;;39.03;23.70;;;6.30;1.00;;;;;;5082846;28;20051;-76
2024/03/04 05:58:04;;;;;;;43.70;25.77;;;6.40;1.00;;;;;;5099594;27;20455;-74
2024/03/04 06:00:51;;;;;;;42.30;24.73;;;6.40;1.00;;;;;;5106387;27;20051;-71
2024/03/04 06:03:39;;;;;;;43.13;24.38;;;6.40;1.00;;;;;;5095864;28;20393;-74
2024/03/04 06:06:26;;;;;;;38.90;23.63;;;6.50;1.00;;;;;;5088370;28;20626;-73
2024/03/04 06:09:15;;;;;;;43.33;24.75;;;6.50;99.90;;;;;;5109770;28;20078;-75
2024/03/04 06:12:03;;;;;;;41.90;24.25;;;6.50;99.90;;;;;;5110400;28;20062;-74
2024/03/04 06:14:50;;;;;;;39.83;23.42;;;6.50;99.90;;;;;;5114086;28;20043;-74
2024/03/04 06:17:38;;;;;;;38.83;22.92;;;6.50;99.90;;;;;;5103981;27;20048;-74
2024/03/04 06:20:25;;;;;;;37.92;22.67;;;6.50;99.90;;;;;;5119475;27;20050;-74
2024/03/04 06:23:13;;;;;;;40.10;22.95;;;6.50;99.90;;;;;;5095680;27;20127;-75
2024/03/04 06:26:01;;;;;;;36.63;22.75;;;6.50;99.90;;;;;;5088873;27;20040;-75
2024/03/04 06:28:49;;;;;;;37.63;22.50;;;6.50;99.90;;;;;;5095893;28;20044;-75
2024/03/04 06:31:36;;;;;;;41.47;23.25;;;6.50;98.90;;;;;;5093099;27;20039;-74
2024/03/04 06:34:24;;;;;;;38.25;22.40;;;6.60;69.30;;;;;;5080132;28;20407;-75
2024/03/04 06:37:14;;;;;;;37.15;22.00;;;6.60;31.50;;;;;;5093723;27;20051;-75
2024/03/04 06:40:01;;;;;;;42.15;23.27;;;6.60;12.10;;;;;;5088054;27;20047;-76
2024/03/04 06:42:49;;;;;;;42.53;24.00;;;6.60;1.00;;;;;;5096635;27;20423;-74
2024/03/04 06:45:36;;;;;;;43.58;24.08;;;6.60;1.00;;;;;;5087927;28;20047;-74
2024/03/04 06:48:24;;;;;;;45.10;24.08;;;6.60;1.00;;;;;;5075249;28;20514;-75
2024/03/04 06:51:12;;;;;;;46.38;25.08;;;6.60;11.90;;;;;;5100514;28;20088;-75
2024/03/04 06:54:11;;;;;;;50.50;25.70;;;6.60;41.30;;;;;;5097581;27;20058;-76
2024/03/04 06:57:01;;;;;;;47.00;24.02;;;6.60;63.00;;;;;;5096316;27;20054;-78
2024/03/04 06:59:50;;;;;;;45.17;24.63;;;6.60;99.90;;;;;;5085678;27;20702;-78
2024/03/04 07:02:42;;;;;;;50.90;25.92;;;6.60;99.90;;;;;;5089710;27;20056;-79
2024/03/04 07:05:30;;;;;;;50.97;25.60;;;6.60;99.90;;;;;;5080214;28;20067;-82
2024/03/04 07:08:18;;;;;;;56.78;28.77;;;6.60;99.90;;;;;;5095433;27;20407;-79
2024/03/04 07:11:06;;;;;;;52.55;26.05;;;6.60;99.90;;;;;;5102407;27;20040;-78
2024/03/04 07:13:54;;;;;;;56.97;28.55;;;6.60;99.90;;;;;;5097983;28;20171;-79
2024/03/04 07:16:42;;;;;;;52.72;26.80;;;6.60;1.00;;;;;;5105864;27;20119;-80
2024/03/04 07:19:30;;;;;;;61.72;28.73;;;6.60;1.00;;;;;;5088786;28;20059;-80
2024/03/04 07:22:18;;;;;;;56.03;27.73;;;6.60;1.00;;;;;;5100607;27;20075;-76
2024/03/04 07:25:06;;;;;;;59.33;27.45;;;6.60;93.00;;;;;;5081708;27;20063;-79
2024/03/04 07:27:54;;;;;;;54.17;26.88;;;6.60;99.90;;;;;;5082186;28;20394;-79
2024/03/04 07:30:42;;;;;;;60.67;28.30;;;6.60;99.90;;;;;;5080634;28;20574;-78
2024/03/04 07:33:29;;;;;;;60.75;28.83;;;6.60;99.90;;;;;;5105051;27;20048;-79
2024/03/04 07:36:17;;;;;;;55.38;28.33;;;6.70;1.00;;;;;;5102140;27;20070;-80
2024/03/04 07:39:05;;;;;;;63.45;28.73;;;6.70;1.00;;;;;;5086585;28;20047;-79
2024/03/04 07:41:52;;;;;;;59.35;28.55;;;6.70;75.70;;;;;;5082394;28;20059;-77
2024/03/04 07:44:42;;;;;;;66.57;31.10;;;6.70;99.90;;;;;;5088370;28;20082;-76
2024/03/04 07:47:29;;;;;;;70.35;35.63;;;6.80;99.90;;;;;;5075177;28;20056;-77
2024/03/04 07:50:19;;;;;;;63.55;28.67;;;6.70;99.90;;;;;;5096545;28;20036;-80
2024/03/04 07:53:07;;;;;;;58.65;28.58;;;6.70;99.90;;;;;;5098063;28;20048;-79
2024/03/04 07:55:54;;;;;;;61.15;29.38;;;6.70;1.00;;;;;;5085747;28;20039;-82
2024/03/04 07:58:42;;;;;;;59.63;30.20;;;6.70;1.00;;;;;;5083497;28;20039;-79
2024/03/04 08:01:31;;;;;;;63.60;30.23;;;6.70;99.90;;;;;;5082667;28;20119;-78
2024/03/04 08:04:19;;;;;;;65.38;29.30;;;6.60;99.90;;;;;;5100425;28;20055;-79
2024/03/04 08:07:07;;;;;;;69.97;32.30;;;6.60;99.90;;;;;;5096902;28;20051;-80
2024/03/04 08:09:55;;;;;;;71.85;32.75;;;6.60;1.00;;;;;;5095394;28;20051;-80
2024/03/04 08:12:42;;;;;;;72.63;32.03;;;6.60;99.90;;;;;;5098950;28;20083;-78
2024/03/04 08:15:30;;;;;;;76.57;32.88;;;6.60;99.90;;;;;;5108502;27;20032;-79
2024/03/04 08:18:18;;;;;;;71.85;32.08;;;6.70;13.10;;;;;;5112009;27;20051;-79
2024/03/04 08:21:07;;;;;;;77.13;32.95;;;6.70;99.90;;;;;;5101878;27;20067;-79
2024/03/04 08:23:56;;;;;;;78.88;33.70;;;6.70;99.90;;;;;;5089396;27;20055;-79
2024/03/04 08:26:46;;;;;;;72.45;32.40;;;6.70;1.00;;;;;;5088887;28;20940;-78
2024/03/04 08:29:34;;;;;;;75.57;32.50;;;6.60;1.00;;;;;;5113541;27;20131;-78
2024/03/04 08:32:21;;;;;;;77.50;33.65;;;6.60;1.00;;;;;;5123006;27;20123;-79
2024/03/04 08:35:12;;;;;;;79.82;32.70;;;6.70;71.60;;;;;;5084405;28;20522;-81
2024/03/04 08:37:59;;;;;;;83.85;32.45;;;6.70;84.30;;;;;;5101665;27;20051;-80
2024/03/04 08:40:46;;;;;;;79.75;35.42;;;6.70;99.90;;;;;;5098296;27;20039;-75
2024/03/04 08:43:34;;;;;;;75.80;32.95;;;6.70;99.90;;;;;;5107402;27;20051;-77
2024/03/04 08:46:21;;;;;;;80.88;32.17;;;6.80;99.90;;;;;;5095644;27;20490;-77
2024/03/04 08:49:11;;;;;;;79.45;33.92;;;6.80;99.90;;;;;;5101512;27;20055;-76
2024/03/04 08:51:58;;;;;;;76.00;33.58;;;6.70;99.90;;;;;;5112813;27;20047;-78
2024/03/04 08:54:46;;;;;;;75.38;32.60;;;6.80;99.90;;;;;;5111373;27;20047;-77
2024/03/04 08:57:34;;;;;;;76.45;33.47;;;6.90;99.90;;;;;;5089535;27;20055;-77
2024/03/04 09:00:22;;;;;;;76.85;33.08;;;6.90;99.90;;;;;;5107395;27;20043;-78
2024/03/04 09:03:09;;;;;;;75.13;32.20;;;6.90;99.90;;;;;;5097133;27;20062;-78
2024/03/04 09:05:58;;;;;;;75.68;32.35;;;6.90;99.90;;;;;;5103837;27;20108;-78
2024/03/04 09:08:47;;;;;;;71.93;32.00;;;6.90;99.90;;;;;;5095688;27;20043;-79
2024/03/04 09:11:37;;;;;;;77.38;31.65;;;7.00;99.90;;;;;;5087945;27;20130;-78
2024/03/04 09:14:25;;;;;;;70.50;30.27;;;7.00;99.90;;;;;;5098435;27;20089;-77
2024/03/04 09:17:13;;;;;;;71.75;30.83;;;7.00;99.90;;;;;;5101453;27;20035;-79
2024/03/04 09:20:00;;;;;;;75.90;29.67;;;7.10;99.90;;;;;;5083934;27;20477;-79
2024/03/04 09:22:48;;;;;;;67.32;29.60;;;7.00;99.90;;;;;;5084768;27;20504;-79
2024/03/04 09:25:35;;;;;;;65.47;29.10;;;7.00;99.90;;;;;;5083519;27;20130;-77
2024/03/04 09:28:28;;;;;;;69.10;29.67;;;7.10;99.90;;;;;;5086867;27;20052;-77
2024/03/04 09:31:15;;;;;;;73.43;33.13;;;7.10;99.90;;;;;;5082831;27;20039;-78
2024/03/04 09:34:03;;;;;;;66.90;30.55;;;7.10;99.90;;;;;;5081829;27;20162;-78
2024/03/04 09:36:51;;;;;;;74.60;30.65;;;7.20;99.90;;;;;;5095085;28;20092;-78
2024/03/04 09:39:39;;;;;;;63.25;28.77;;;7.20;99.90;;;;;;5103174;28;20058;-79
2024/03/04 09:42:32;;;;;;;74.88;28.73;;;7.20;99.90;;;;;;5099558;28;20088;-79
2024/03/04 09:45:21;;;;;;;60.83;27.83;;;7.20;99.90;;;;;;5095478;27;21762;-78
2024/03/04 09:48:20;;;;;;;68.97;28.00;;;7.30;99.90;;;;;;5102487;27;20069;-77
2024/03/04 09:51:09;;;;;;;65.30;28.15;;;7.30;99.90;;;;;;5095878;28;20040;-78
2024/03/04 09:53:58;;;;;;;61.80;26.25;;;7.30;99.90;;;;;;5089751;28;20035;-78
2024/03/04 09:56:46;;;;;;;60.42;25.80;;;7.30;99.90;;;;;;5096750;28;20499;-79
2024/03/04 09:59:35;;;;;;;59.20;26.38;;;7.30;99.90;;;;;;5095025;27;20052;-79
2024/03/04 10:02:25;;;;;;;59.97;26.88;;;7.30;99.90;;;;;;5097353;27;20047;-80
2024/03/04 10:05:15;;;;;;;57.88;26.40;;;7.40;99.90;;;;;;5083629;28;20054;-79
2024/03/04 10:08:03;;;;;;;63.78;26.85;;;7.40;53.20;;;;;;5082841;28;20058;-79
2024/03/04 10:10:51;;;;;;;56.53;25.70;;;7.50;1.00;;;;;;5101444;27;20397;-79
2024/03/04 10:13:39;;;;;;;57.55;26.73;;;7.60;1.00;;;;;;5091596;27;20487;-79
2024/03/04 10:16:29;;;;;;;59.80;27.80;;;7.70;1.00;;;;;;5100000;27;20062;-79
2024/03/04 10:19:21;;;;;;;51.53;25.02;;;7.80;99.90;;;;;;5077134;27;20040;-78
2024/03/04 10:22:12;;;;;;;51.65;26.35;;;7.70;99.90;;;;;;5092683;27;20045;-78
2024/03/04 10:25:14;;;;;;;58.45;27.73;;;7.80;1.00;;;;;;5100765;28;20089;-81
2024/03/04 10:28:03;;;;;;;53.77;28.73;;;7.80;99.90;;;;;;5090272;28;20040;-78
2024/03/04 10:30:50;;;;;;;56.05;25.63;;;7.80;1.00;;;;;;5096778;27;20085;-77
2024/03/04 10:33:41;;;;;;;55.33;25.70;;;7.70;99.90;;;;;;5101754;28;20046;-80
2024/03/04 10:36:31;;;;;;;55.53;27.00;;;7.60;99.90;;;;;;5089245;27;20040;-78
2024/03/04 10:39:19;;;;;;;59.25;28.30;;;7.50;1.00;;;;;;5091374;28;20032;-77
2024/03/04 10:42:14;;;;;;;62.75;26.60;;;7.40;99.90;;;;;;5087115;28;20049;-77
2024/03/04 10:45:04;;;;;;;62.03;28.90;;;7.50;99.90;;;;;;5094024;28;20065;-78
2024/03/04 10:47:51;;;;;;;58.28;27.58;;;7.50;99.90;;;;;;5100764;28;20063;-77
2024/03/04 10:50:39;;;;;;;64.80;28.30;;;7.50;99.90;;;;;;5091925;27;20048;-78
2024/03/04 10:53:29;;;;;;;61.08;27.17;;;7.60;99.90;;;;;;5089648;27;20035;-79
2024/03/04 10:56:17;;;;;;;60.28;29.50;;;7.60;99.90;;;;;;5095940;27;20058;-79
2024/03/04 10:59:08;;;;;;;67.43;29.08;;;7.70;31.70;;;;;;5097738;28;20054;-78
2024/03/04 11:01:56;;;;;;;61.28;28.90;;;7.70;1.00;;;;;;5092381;27;20284;-80
2024/03/04 11:04:51;;;;;;;61.38;26.77;;;7.80;99.90;;;;;;5106801;27;20051;-78
2024/03/04 11:07:45;;;;;;;55.95;26.45;;;7.70;99.90;;;;;;5093558;27;20043;-78
2024/03/04 11:10:51;;;;;;;56.17;27.45;;;7.80;99.90;;;;;;5087385;27;20054;-78
2024/03/04 11:14:06;;;;;;;60.22;27.92;;;7.80;99.90;;;;;;5091833;27;20108;-78
2024/03/04 11:17:03;;;;;;;67.68;31.00;;;7.90;99.90;;;;;;5093601;27;20365;-77
2024/03/04 11:19:53;;;;;;;70.10;30.65;;;7.90;1.00;;;;;;5101652;27;20039;-77
2024/03/04 11:22:45;;;;;;;64.53;30.60;;;7.90;1.00;;;;;;5097339;28;20054;-77
2024/03/04 11:25:34;;;;;;;62.30;27.55;;;8.00;99.90;;;;;;5084892;27;20047;-78
2024/03/04 11:28:22;;;;;;;64.75;28.58;;;8.00;99.90;;;;;;5096062;27;20043;-78
2024/03/04 11:31:26;;;;;;;66.53;29.77;;;7.90;99.90;;;;;;5083217;28;20048;-78
2024/03/04 11:34:13;;;;;;;63.53;29.17;;;7.90;41.90;;;;;;5085764;28;20043;-79
2024/03/04 11:37:02;;;;;;;70.50;31.75;;;7.80;1.00;;;;;;5079726;28;20039;-78
2024/03/04 11:39:50;;;;;;;70.65;33.03;;;7.80;1.00;;;;;;5088122;28;20047;-78
2024/03/04 11:42:44;;;;;;;54.60;24.57;;;7.90;1.00;;;;;;5097573;28;20436;-79
2024/03/04 11:45:33;;;;;;;70.20;31.90;;;8.00;1.00;;;;;;5110507;28;20086;-80
2024/03/04 11:48:28;;;;;;;45.67;23.58;;;8.00;1.00;;;;;;5107271;28;20039;-80
2024/03/04 11:51:43;;;;;;;69.47;32.50;;;8.10;99.90;;;;;;5083213;28;20115;-79
2024/03/04 11:54:41;;;;;;;73.63;32.83;;;8.30;99.90;;;;;;5096944;28;20068;-79
2024/03/04 11:57:29;;;;;;;74.38;33.63;;;8.50;99.90;;;;;;5099101;27;20441;-79
2024/03/04 12:00:17;;;;;;;64.65;31.65;;;8.50;1.00;;;;;;5119519;27;20054;-77
2024/03/04 12:03:05;;;;;;;69.13;32.33;;;8.70;1.00;;;;;;5123693;27;20040;-80
2024/03/04 12:05:53;;;;;;;63.80;31.55;;;9.10;99.90;;;;;;5098939;27;20047;-79
2024/03/04 12:08:41;;;;;;;65.95;31.70;;;9.30;99.90;;;;;;5097850;27;20466;-78
2024/03/04 12:11:50;;;;;;;65.72;31.55;;;9.40;1.00;;;;;;5102895;27;20385;-78
2024/03/04 12:14:38;;;;;;;60.13;31.52;;;9.60;99.90;;;;;;5094891;27;20086;-80
2024/03/04 12:17:28;;;;;;;64.15;30.63;;;9.60;99.90;;;;;;5089472;27;20035;-78
2024/03/04 12:20:21;;;;;;;60.22;31.05;;;9.70;16.80;;;;;;5127650;27;20036;-79
2024/03/04 12:23:08;;;;;;;57.55;30.25;;;9.70;1.00;;;;;;5125256;27;20136;-78
2024/03/04 12:26:15;;;;;;;62.80;30.83;;;9.70;99.90;;;;;;5109170;28;20083;-78
2024/03/04 12:29:10;;;;;;;60.45;29.15;;;9.70;99.90;;;;;;5116304;27;20050;-79
2024/03/04 12:32:02;;;;;;;56.55;29.02;;;9.70;99.90;;;;;;5094348;27;20075;-80
2024/03/04 12:34:52;;;;;;;53.85;28.33;;;9.60;99.90;;;;;;5120787;27;20070;-78
2024/03/04 12:37:43;;;;;;;56.40;29.17;;;9.60;99.90;;;;;;5105408;27;20108;-79
2024/03/04 12:40:31;;;;;;;61.42;30.35;;;9.40;99.90;;;;;;5116510;27;20032;-78
2024/03/04 12:43:19;;;;;;;56.63;30.58;;;9.50;93.60;;;;;;5125432;27;20043;-75
2024/03/04 12:46:09;;;;;;;55.55;29.48;;;9.40;92.50;;;;;;5116494;27;20078;-79
2024/03/04 12:49:04;;;;;;;62.30;30.90;;;9.30;65.40;;;;;;5098673;27;20031;-77
2024/03/04 12:51:54;;;;;;;60.85;29.35;;;9.20;51.60;;;;;;5111938;27;20055;-79
2024/03/04 12:54:42;;;;;;;69.85;31.73;;;9.10;93.10;;;;;;5109403;27;20047;-79
2024/03/04 12:57:31;;;;;;;65.65;31.17;;;9.00;99.90;;;;;;5107779;27;20035;-76
2024/03/04 13:00:19;;;;;;;66.72;32.65;;;8.90;99.90;;;;;;5109137;27;20044;-78
2024/03/04 13:03:08;;;;;;;72.38;34.78;;;8.80;99.90;;;;;;5087300;27;20043;-80
2024/03/04 13:05:58;;;;;;;68.35;33.65;;;8.70;99.90;;;;;;5101892;27;20032;-79
2024/03/04 13:08:46;;;;;;;77.95;35.97;;;8.50;99.90;;;;;;5081958;28;20039;-80
2024/03/04 13:11:35;;;;;;;82.28;36.88;;;8.40;99.90;;;;;;5099426;27;20058;-80
2024/03/04 13:14:23;;;;;;;86.38;38.47;;;8.40;99.90;;;;;;5088097;27;20047;-80
2024/03/04 13:17:10;;;;;;;87.78;39.15;;;8.30;99.90;;;;;;5101660;27;20036;-80
2024/03/04 13:20:14;;;;;;;100.68;42.58;;;8.30;99.90;;;;;;5097120;27;20055;-77
2024/03/04 13:23:03;;;;;;;90.75;38.33;;;8.20;99.90;;;;;;5098367;28;20059;-80
2024/03/04 13:25:51;;;;;;;94.70;40.58;;;8.10;1.00;;;;;;5096906;27;20488;-78
2024/03/04 13:28:41;;;;;;;99.28;43.45;;;8.10;1.00;;;;;;5096960;27;20448;-79
2024/03/04 13:31:29;;;;;;;92.32;38.55;;;8.10;1.00;;;;;;5084141;28;20048;-80
2024/03/04 13:34:16;;;;;;;81.03;38.17;;;8.10;1.00;;;;;;5092649;28;20875;-78
2024/03/04 13:37:05;;;;;;;82.30;37.97;;;8.20;1.00;;;;;;5099215;27;20133;-77
2024/03/04 13:39:57;;;;;;;81.85;39.40;;;8.20;1.00;;;;;;5086644;28;20039;-78
2024/03/04 13:42:44;;;;;;;85.05;37.03;;;8.20;1.00;;;;;;5094447;27;20106;-81
2024/03/04 13:45:36;;;;;;;78.03;37.40;;;8.20;1.00;;;;;;5091526;27;20234;-78
2024/03/04 13:48:25;;;;;;;73.15;34.65;;;8.10;1.00;;;;;;5106932;27;20048;-79
2024/03/04 13:51:13;;;;;;;76.65;35.88;;;8.10;1.00;;;;;;5109265;27;20024;-77
2024/03/04 13:54:01;;;;;;;76.38;36.20;;;8.10;1.00;;;;;;5121911;27;20118;-78
2024/03/04 13:56:48;;;;;;;68.57;34.35;;;8.10;1.00;;;;;;5104639;27;20535;-82
2024/03/04 13:59:39;;;;;;;77.05;34.17;;;8.10;1.00;;;;;;5083285;28;20184;-79
2024/03/04 14:02:28;;;;;;;76.78;34.65;;;8.10;1.00;;;;;;5092447;27;20118;-80
2024/03/04 14:05:21;;;;;;;80.25;36.38;;;8.10;1.00;;;;;;5102846;27;20046;-79
2024/03/04 14:08:09;;;;;;;75.78;34.42;;;8.10;5.10;;;;;;5100139;27;20411;-79
2024/03/04 14:11:00;;;;;;;73.18;32.90;;;8.10;1.00;;;;;;5096237;27;20035;-79
2024/03/04 14:13:51;;;;;;;65.55;33.10;;;8.20;1.00;;;;;;5103213;27;20059;-79
2024/03/04 14:16:49;;;;;;;70.15;31.33;;;8.20;1.00;;;;;;5099872;27;20563;-77
2024/03/04 14:19:36;;;;;;;61.35;32.65;;;8.30;1.00;;;;;;5101437;27;20031;-78
2024/03/04 14:22:24;;;;;;;66.25;31.65;;;8.40;1.00;;;;;;5094774;27;20774;-77
2024/03/04 14:25:12;;;;;;;60.72;30.48;;;8.50;1.00;;;;;;5098933;27;20381;-79
2024/03/04 14:28:00;;;;;;;59.03;30.80;;;8.50;1.00;;;;;;5084927;27;20048;-79
2024/03/04 14:30:48;;;;;;;61.83;31.90;;;8.50;99.90;;;;;;5092059;27;20044;-78
2024/03/04 14:33:36;;;;;;;63.33;31.27;;;8.60;99.90;;;;;;5081004;28;20082;-77